sensor_id;sensor_type;location;lat;lon;timestamp;P1;durP1;ratioP1;P2;durP2;ratioP2
62848;SDS011;48941;49.516;8.286;2023-06-10T00:01:06;13.18;;;9.43;;
62848;SDS011;48941;49.516;8.286;2023-06-10T00:03:33;15.90;;;8.93;;
62848;SDS011;48941;49.516;8.286;2023-06-10T00:06:04;18.05;;;9.50;;
62848;SDS011;48941;49.516;8.286;2023-06-10T00:08:32;15.10;;;8.90;;
62848;SDS011;48941;49.516;8.286;2023-06-10T00:11:00;18.67;;;9.32;;
62848;SDS011;48941;49.516;8.286;2023-06-10T00:13:28;16.08;;;9.48;;
62848;SDS011;48941;49.516;8.286;2023-06-10T00:15:56;13.52;;;9.40;;
62848;SDS011;48941;49.516;8.286;2023-06-10T00:18:23;11.77;;;8.68;;
62848;SDS011;48941;49.516;8.286;2023-06-10T00:20:53;12.75;;;10.00;;
62848;SDS011;48941;49.516;8.286;2023-06-10T00:23:22;11.52;;;8.98;;
62848;SDS011;48941;49.516;8.286;2023-06-10T00:25:51;14.68;;;9.60;;
62848;SDS011;48941;49.516;8.286;2023-06-10T00:28:18;11.48;;;9.13;;
62848;SDS011;48941;49.516;8.286;2023-06-10T00:30:46;13.23;;;10.15;;
62848;SDS011;48941;49.516;8.286;2023-06-10T00:33:14;15.65;;;9.57;;
62848;SDS011;48941;49.516;8.286;2023-06-10T00:35:42;12.38;;;9.52;;
62848;SDS011;48941;49.516;8.286;2023-06-10T00:38:10;14.05;;;9.30;;
62848;SDS011;48941;49.516;8.286;2023-06-10T00:40:40;13.32;;;10.18;;
62848;SDS011;48941;49.516;8.286;2023-06-10T00:43:08;13.30;;;9.82;;
62848;SDS011;48941;49.516;8.286;2023-06-10T00:45:36;12.23;;;10.55;;
62848;SDS011;48941;49.516;8.286;2023-06-10T00:48:04;10.50;;;9.38;;
62848;SDS011;48941;49.516;8.286;2023-06-10T00:50:32;12.35;;;9.93;;
62848;SDS011;48941;49.516;8.286;2023-06-10T00:53:01;12.27;;;9.77;;
62848;SDS011;48941;49.516;8.286;2023-06-10T00:55:29;12.95;;;10.18;;
62848;SDS011;48941;49.516;8.286;2023-06-10T00:57:59;15.88;;;9.70;;
62848;SDS011;48941;49.516;8.286;2023-06-10T01:00:27;11.10;;;9.85;;
62848;SDS011;48941;49.516;8.286;2023-06-10T01:02:55;12.55;;;9.77;;
62848;SDS011;48941;49.516;8.286;2023-06-10T01:05:23;13.52;;;10.23;;
62848;SDS011;48941;49.516;8.286;2023-06-10T01:07:54;12.68;;;9.73;;
62848;SDS011;48941;49.516;8.286;2023-06-10T01:10:28;13.63;;;10.20;;
62848;SDS011;48941;49.516;8.286;2023-06-10T01:13:02;16.25;;;9.70;;
62848;SDS011;48941;49.516;8.286;2023-06-10T01:15:33;14.05;;;9.27;;
62848;SDS011;48941;49.516;8.286;2023-06-10T01:18:03;11.48;;;9.40;;
62848;SDS011;48941;49.516;8.286;2023-06-10T01:20:35;10.95;;;9.77;;
62848;SDS011;48941;49.516;8.286;2023-06-10T01:23:08;14.70;;;9.80;;
62848;SDS011;48941;49.516;8.286;2023-06-10T01:25:37;16.70;;;10.43;;
62848;SDS011;48941;49.516;8.286;2023-06-10T01:28:08;12.80;;;10.52;;
62848;SDS011;48941;49.516;8.286;2023-06-10T01:30:42;13.38;;;10.32;;
62848;SDS011;48941;49.516;8.286;2023-06-10T01:33:13;13.68;;;10.32;;
62848;SDS011;48941;49.516;8.286;2023-06-10T01:35:44;13.30;;;10.00;;
62848;SDS011;48941;49.516;8.286;2023-06-10T01:38:15;13.32;;;9.93;;
62848;SDS011;48941;49.516;8.286;2023-06-10T01:40:46;14.93;;;9.50;;
62848;SDS011;48941;49.516;8.286;2023-06-10T01:43:16;14.63;;;9.80;;
62848;SDS011;48941;49.516;8.286;2023-06-10T01:45:44;18.58;;;10.60;;
62848;SDS011;48941;49.516;8.286;2023-06-10T01:48:12;11.27;;;9.32;;
62848;SDS011;48941;49.516;8.286;2023-06-10T01:50:40;10.07;;;9.07;;
62848;SDS011;48941;49.516;8.286;2023-06-10T01:53:10;14.38;;;9.35;;
62848;SDS011;48941;49.516;8.286;2023-06-10T01:55:39;14.15;;;9.90;;
62848;SDS011;48941;49.516;8.286;2023-06-10T01:58:07;16.60;;;10.02;;
62848;SDS011;48941;49.516;8.286;2023-06-10T02:00:35;12.93;;;9.32;;
62848;SDS011;48941;49.516;8.286;2023-06-10T02:03:03;11.23;;;9.98;;
62848;SDS011;48941;49.516;8.286;2023-06-10T02:05:31;10.45;;;9.20;;
62848;SDS011;48941;49.516;8.286;2023-06-10T02:07:59;15.10;;;9.55;;
62848;SDS011;48941;49.516;8.286;2023-06-10T02:10:27;12.20;;;9.77;;
62848;SDS011;48941;49.516;8.286;2023-06-10T02:12:56;12.52;;;9.98;;
62848;SDS011;48941;49.516;8.286;2023-06-10T02:15:24;17.90;;;10.52;;
62848;SDS011;48941;49.516;8.286;2023-06-10T02:17:52;12.70;;;10.00;;
62848;SDS011;48941;49.516;8.286;2023-06-10T02:20:22;14.25;;;9.77;;
62848;SDS011;48941;49.516;8.286;2023-06-10T02:22:50;14.55;;;10.10;;
62848;SDS011;48941;49.516;8.286;2023-06-10T02:25:18;12.73;;;9.85;;
62848;SDS011;48941;49.516;8.286;2023-06-10T02:27:46;14.75;;;9.70;;
62848;SDS011;48941;49.516;8.286;2023-06-10T02:30:15;13.35;;;10.00;;
62848;SDS011;48941;49.516;8.286;2023-06-10T02:32:43;12.15;;;10.10;;
62848;SDS011;48941;49.516;8.286;2023-06-10T02:35:14;11.73;;;10.23;;
62848;SDS011;48941;49.516;8.286;2023-06-10T02:37:43;13.90;;;9.57;;
62848;SDS011;48941;49.516;8.286;2023-06-10T02:40:11;12.73;;;9.18;;
62848;SDS011;48941;49.516;8.286;2023-06-10T02:42:39;11.07;;;9.75;;
62848;SDS011;48941;49.516;8.286;2023-06-10T02:45:07;14.98;;;9.35;;
62848;SDS011;48941;49.516;8.286;2023-06-10T02:47:37;16.10;;;9.65;;
62848;SDS011;48941;49.516;8.286;2023-06-10T02:50:06;11.43;;;9.70;;
62848;SDS011;48941;49.516;8.286;2023-06-10T02:52:34;13.45;;;9.77;;
62848;SDS011;48941;49.516;8.286;2023-06-10T02:55:02;15.77;;;9.65;;
62848;SDS011;48941;49.516;8.286;2023-06-10T02:57:30;14.50;;;9.77;;
62848;SDS011;48941;49.516;8.286;2023-06-10T02:59:58;14.43;;;9.25;;
62848;SDS011;48941;49.516;8.286;2023-06-10T03:02:27;13.27;;;9.70;;
62848;SDS011;48941;49.516;8.286;2023-06-10T03:04:57;11.73;;;9.50;;
62848;SDS011;48941;49.516;8.286;2023-06-10T03:07:25;10.88;;;8.93;;
62848;SDS011;48941;49.516;8.286;2023-06-10T03:09:53;10.77;;;9.05;;
62848;SDS011;48941;49.516;8.286;2023-06-10T03:12:21;15.35;;;9.43;;
62848;SDS011;48941;49.516;8.286;2023-06-10T03:14:49;14.45;;;9.23;;
62848;SDS011;48941;49.516;8.286;2023-06-10T03:17:17;12.77;;;9.43;;
62848;SDS011;48941;49.516;8.286;2023-06-10T03:19:44;12.68;;;9.30;;
62848;SDS011;48941;49.516;8.286;2023-06-10T03:22:14;12.32;;;9.35;;
62848;SDS011;48941;49.516;8.286;2023-06-10T03:24:43;13.52;;;9.88;;
62848;SDS011;48941;49.516;8.286;2023-06-10T03:27:12;10.75;;;9.07;;
62848;SDS011;48941;49.516;8.286;2023-06-10T03:29:41;15.85;;;9.77;;
62848;SDS011;48941;49.516;8.286;2023-06-10T03:32:09;12.13;;;8.85;;
62848;SDS011;48941;49.516;8.286;2023-06-10T03:34:37;13.00;;;9.55;;
62848;SDS011;48941;49.516;8.286;2023-06-10T03:37:05;13.35;;;9.23;;
62848;SDS011;48941;49.516;8.286;2023-06-10T03:39:34;16.23;;;9.40;;
62848;SDS011;48941;49.516;8.286;2023-06-10T03:42:02;11.50;;;8.98;;
62848;SDS011;48941;49.516;8.286;2023-06-10T03:44:31;12.80;;;8.88;;
62848;SDS011;48941;49.516;8.286;2023-06-10T03:46:58;13.15;;;8.50;;
62848;SDS011;48941;49.516;8.286;2023-06-10T03:49:26;10.73;;;8.88;;
62848;SDS011;48941;49.516;8.286;2023-06-10T03:51:55;15.20;;;9.10;;
62848;SDS011;48941;49.516;8.286;2023-06-10T03:54:23;9.65;;;8.52;;
62848;SDS011;48941;49.516;8.286;2023-06-10T03:56:53;16.02;;;9.65;;
62848;SDS011;48941;49.516;8.286;2023-06-10T03:59:21;20.48;;;9.10;;
62848;SDS011;48941;49.516;8.286;2023-06-10T04:01:49;18.48;;;8.95;;
62848;SDS011;48941;49.516;8.286;2023-06-10T04:04:16;12.57;;;8.65;;
62848;SDS011;48941;49.516;8.286;2023-06-10T04:06:44;14.73;;;8.50;;
62848;SDS011;48941;49.516;8.286;2023-06-10T04:09:12;14.25;;;8.98;;
62848;SDS011;48941;49.516;8.286;2023-06-10T04:11:40;12.32;;;8.65;;
62848;SDS011;48941;49.516;8.286;2023-06-10T04:14:09;11.90;;;9.25;;
62848;SDS011;48941;49.516;8.286;2023-06-10T04:16:37;12.23;;;8.77;;
62848;SDS011;48941;49.516;8.286;2023-06-10T04:19:05;11.90;;;9.38;;
62848;SDS011;48941;49.516;8.286;2023-06-10T04:21:33;14.68;;;8.48;;
62848;SDS011;48941;49.516;8.286;2023-06-10T04:24:02;14.90;;;8.40;;
62848;SDS011;48941;49.516;8.286;2023-06-10T04:26:30;13.10;;;8.68;;
62848;SDS011;48941;49.516;8.286;2023-06-10T04:28:58;12.70;;;8.30;;
62848;SDS011;48941;49.516;8.286;2023-06-10T04:31:28;16.42;;;8.60;;
62848;SDS011;48941;49.516;8.286;2023-06-10T04:33:55;12.70;;;8.60;;
62848;SDS011;48941;49.516;8.286;2023-06-10T04:36:23;12.90;;;9.20;;
62848;SDS011;48941;49.516;8.286;2023-06-10T04:38:51;18.58;;;8.95;;
62848;SDS011;48941;49.516;8.286;2023-06-10T04:41:19;12.82;;;9.52;;
62848;SDS011;48941;49.516;8.286;2023-06-10T04:43:48;12.20;;;9.32;;
62848;SDS011;48941;49.516;8.286;2023-06-10T04:46:16;14.10;;;9.02;;
62848;SDS011;48941;49.516;8.286;2023-06-10T04:48:45;12.48;;;9.02;;
62848;SDS011;48941;49.516;8.286;2023-06-10T04:51:14;11.73;;;8.63;;
62848;SDS011;48941;49.516;8.286;2023-06-10T04:53:42;11.18;;;9.10;;
62848;SDS011;48941;49.516;8.286;2023-06-10T04:56:11;18.17;;;9.05;;
62848;SDS011;48941;49.516;8.286;2023-06-10T04:58:38;13.18;;;8.93;;
62848;SDS011;48941;49.516;8.286;2023-06-10T05:01:06;11.23;;;9.55;;
62848;SDS011;48941;49.516;8.286;2023-06-10T05:03:34;11.60;;;8.98;;
62848;SDS011;48941;49.516;8.286;2023-06-10T05:06:04;18.02;;;9.02;;
62848;SDS011;48941;49.516;8.286;2023-06-10T05:08:32;12.77;;;8.38;;
62848;SDS011;48941;49.516;8.286;2023-06-10T05:11:00;11.23;;;8.88;;
62848;SDS011;48941;49.516;8.286;2023-06-10T05:13:28;13.20;;;9.07;;
62848;SDS011;48941;49.516;8.286;2023-06-10T05:15:56;12.10;;;8.85;;
62848;SDS011;48941;49.516;8.286;2023-06-10T05:18:24;20.27;;;8.70;;
62848;SDS011;48941;49.516;8.286;2023-06-10T05:20:52;9.88;;;8.05;;
62848;SDS011;48941;49.516;8.286;2023-06-10T05:23:22;14.48;;;8.45;;
62848;SDS011;48941;49.516;8.286;2023-06-10T05:25:50;12.95;;;9.30;;
62848;SDS011;48941;49.516;8.286;2023-06-10T05:28:17;10.18;;;8.00;;
62848;SDS011;48941;49.516;8.286;2023-06-10T05:30:46;12.25;;;8.63;;
62848;SDS011;48941;49.516;8.286;2023-06-10T05:33:13;12.80;;;8.15;;
62848;SDS011;48941;49.516;8.286;2023-06-10T05:35:41;13.48;;;8.63;;
62848;SDS011;48941;49.516;8.286;2023-06-10T05:38:09;11.38;;;8.68;;
62848;SDS011;48941;49.516;8.286;2023-06-10T05:40:39;13.52;;;8.63;;
62848;SDS011;48941;49.516;8.286;2023-06-10T05:43:06;14.25;;;8.82;;
62848;SDS011;48941;49.516;8.286;2023-06-10T05:45:35;12.88;;;8.25;;
62848;SDS011;48941;49.516;8.286;2023-06-10T05:48:04;11.63;;;8.85;;
62848;SDS011;48941;49.516;8.286;2023-06-10T05:50:33;9.95;;;8.05;;
62848;SDS011;48941;49.516;8.286;2023-06-10T05:53:04;14.73;;;8.65;;
62848;SDS011;48941;49.516;8.286;2023-06-10T05:55:34;9.90;;;7.90;;
62848;SDS011;48941;49.516;8.286;2023-06-10T05:58:03;12.73;;;7.85;;
62848;SDS011;48941;49.516;8.286;2023-06-10T06:00:31;16.23;;;7.90;;
62848;SDS011;48941;49.516;8.286;2023-06-10T06:03:03;12.90;;;8.18;;
62848;SDS011;48941;49.516;8.286;2023-06-10T06:05:34;12.23;;;8.25;;
62848;SDS011;48941;49.516;8.286;2023-06-10T06:08:03;9.20;;;7.72;;
62848;SDS011;48941;49.516;8.286;2023-06-10T06:10:31;12.60;;;7.97;;
62848;SDS011;48941;49.516;8.286;2023-06-10T06:13:00;11.77;;;7.72;;
62848;SDS011;48941;49.516;8.286;2023-06-10T06:15:29;14.80;;;7.90;;
62848;SDS011;48941;49.516;8.286;2023-06-10T06:17:57;9.73;;;7.40;;
62848;SDS011;48941;49.516;8.286;2023-06-10T06:20:25;9.60;;;7.50;;
62848;SDS011;48941;49.516;8.286;2023-06-10T06:22:53;14.98;;;7.57;;
62848;SDS011;48941;49.516;8.286;2023-06-10T06:25:21;11.32;;;7.82;;
62848;SDS011;48941;49.516;8.286;2023-06-10T06:27:49;12.98;;;7.70;;
62848;SDS011;48941;49.516;8.286;2023-06-10T06:30:17;14.45;;;8.05;;
62848;SDS011;48941;49.516;8.286;2023-06-10T06:32:46;11.10;;;7.75;;
62848;SDS011;48941;49.516;8.286;2023-06-10T06:35:14;10.43;;;8.00;;
62848;SDS011;48941;49.516;8.286;2023-06-10T06:37:42;13.73;;;7.82;;
62848;SDS011;48941;49.516;8.286;2023-06-10T06:40:10;11.43;;;8.27;;
62848;SDS011;48941;49.516;8.286;2023-06-10T06:42:39;9.32;;;7.40;;
62848;SDS011;48941;49.516;8.286;2023-06-10T06:45:07;10.23;;;7.55;;
62848;SDS011;48941;49.516;8.286;2023-06-10T06:47:35;10.30;;;7.70;;
62848;SDS011;48941;49.516;8.286;2023-06-10T06:50:05;13.93;;;7.95;;
62848;SDS011;48941;49.516;8.286;2023-06-10T06:52:33;13.70;;;7.70;;
62848;SDS011;48941;49.516;8.286;2023-06-10T06:55:01;10.32;;;8.25;;
62848;SDS011;48941;49.516;8.286;2023-06-10T06:57:29;12.13;;;7.78;;
62848;SDS011;48941;49.516;8.286;2023-06-10T06:59:57;11.25;;;7.60;;
62848;SDS011;48941;49.516;8.286;2023-06-10T07:02:25;12.95;;;7.30;;
62848;SDS011;48941;49.516;8.286;2023-06-10T07:04:53;9.52;;;7.80;;
62848;SDS011;48941;49.516;8.286;2023-06-10T07:07:23;7.78;;;6.97;;
62848;SDS011;48941;49.516;8.286;2023-06-10T07:09:52;11.23;;;7.38;;
62848;SDS011;48941;49.516;8.286;2023-06-10T07:12:19;8.43;;;7.50;;
62848;SDS011;48941;49.516;8.286;2023-06-10T07:14:50;8.13;;;7.30;;
62848;SDS011;48941;49.516;8.286;2023-06-10T07:17:18;9.02;;;7.38;;
62848;SDS011;48941;49.516;8.286;2023-06-10T07:19:46;13.10;;;7.28;;
62848;SDS011;48941;49.516;8.286;2023-06-10T07:22:15;8.82;;;6.75;;
62848;SDS011;48941;49.516;8.286;2023-06-10T07:24:44;11.18;;;7.43;;
62848;SDS011;48941;49.516;8.286;2023-06-10T07:27:12;15.07;;;7.32;;
62848;SDS011;48941;49.516;8.286;2023-06-10T07:29:40;12.57;;;7.38;;
62848;SDS011;48941;49.516;8.286;2023-06-10T07:32:08;9.50;;;7.28;;
62848;SDS011;48941;49.516;8.286;2023-06-10T07:34:36;10.48;;;7.25;;
62848;SDS011;48941;49.516;8.286;2023-06-10T07:37:04;10.65;;;7.10;;
62848;SDS011;48941;49.516;8.286;2023-06-10T07:39:32;9.93;;;6.75;;
62848;SDS011;48941;49.516;8.286;2023-06-10T07:42:01;9.05;;;6.60;;
62848;SDS011;48941;49.516;8.286;2023-06-10T07:44:29;8.57;;;6.88;;
62848;SDS011;48941;49.516;8.286;2023-06-10T07:46:57;9.48;;;6.45;;
62848;SDS011;48941;49.516;8.286;2023-06-10T07:49:25;10.32;;;6.50;;
62848;SDS011;48941;49.516;8.286;2023-06-10T07:51:53;8.95;;;6.80;;
62848;SDS011;48941;49.516;8.286;2023-06-10T07:54:22;8.18;;;6.40;;
62848;SDS011;48941;49.516;8.286;2023-06-10T07:56:50;9.13;;;6.43;;
62848;SDS011;48941;49.516;8.286;2023-06-10T07:59:21;8.68;;;6.55;;
62848;SDS011;48941;49.516;8.286;2023-06-10T08:01:48;13.50;;;6.43;;
62848;SDS011;48941;49.516;8.286;2023-06-10T08:04:16;9.75;;;6.68;;
62848;SDS011;48941;49.516;8.286;2023-06-10T08:06:44;12.63;;;6.80;;
62848;SDS011;48941;49.516;8.286;2023-06-10T08:09:12;9.88;;;6.13;;
62848;SDS011;48941;49.516;8.286;2023-06-10T08:11:40;9.35;;;5.80;;
62848;SDS011;48941;49.516;8.286;2023-06-10T08:14:08;10.68;;;6.20;;
62848;SDS011;48941;49.516;8.286;2023-06-10T08:16:37;7.65;;;5.93;;
62848;SDS011;48941;49.516;8.286;2023-06-10T08:19:05;10.57;;;6.05;;
62848;SDS011;48941;49.516;8.286;2023-06-10T08:21:35;6.82;;;5.85;;
62848;SDS011;48941;49.516;8.286;2023-06-10T08:24:06;8.40;;;6.30;;
62848;SDS011;48941;49.516;8.286;2023-06-10T08:26:34;8.63;;;6.50;;
62848;SDS011;48941;49.516;8.286;2023-06-10T08:29:02;8.57;;;6.35;;
62848;SDS011;48941;49.516;8.286;2023-06-10T08:31:30;10.10;;;6.20;;
62848;SDS011;48941;49.516;8.286;2023-06-10T08:33:59;7.68;;;6.05;;
62848;SDS011;48941;49.516;8.286;2023-06-10T08:36:27;8.65;;;6.38;;
62848;SDS011;48941;49.516;8.286;2023-06-10T08:38:55;9.90;;;6.50;;
62848;SDS011;48941;49.516;8.286;2023-06-10T08:41:23;8.77;;;6.00;;
62848;SDS011;48941;49.516;8.286;2023-06-10T08:43:58;9.98;;;6.18;;
62848;SDS011;48941;49.516;8.286;2023-06-10T08:46:31;12.00;;;6.30;;
62848;SDS011;48941;49.516;8.286;2023-06-10T08:49:01;12.07;;;6.22;;
62848;SDS011;48941;49.516;8.286;2023-06-10T08:51:32;10.05;;;6.13;;
62848;SDS011;48941;49.516;8.286;2023-06-10T08:54:04;8.38;;;6.07;;
62848;SDS011;48941;49.516;8.286;2023-06-10T08:56:35;7.32;;;6.22;;
62848;SDS011;48941;49.516;8.286;2023-06-10T08:59:07;11.85;;;6.13;;
62848;SDS011;48941;49.516;8.286;2023-06-10T09:01:36;9.15;;;5.90;;
62848;SDS011;48941;49.516;8.286;2023-06-10T09:04:07;5.93;;;5.18;;
62848;SDS011;48941;49.516;8.286;2023-06-10T09:06:35;10.00;;;5.68;;
62848;SDS011;48941;49.516;8.286;2023-06-10T09:09:04;6.40;;;5.50;;
62848;SDS011;48941;49.516;8.286;2023-06-10T09:11:33;8.50;;;6.13;;
62848;SDS011;48941;49.516;8.286;2023-06-10T09:14:01;7.18;;;5.72;;
62848;SDS011;48941;49.516;8.286;2023-06-10T09:16:29;7.32;;;5.72;;
62848;SDS011;48941;49.516;8.286;2023-06-10T09:18:57;7.97;;;6.13;;
62848;SDS011;48941;49.516;8.286;2023-06-10T09:21:26;8.55;;;5.20;;
62848;SDS011;48941;49.516;8.286;2023-06-10T09:23:55;5.88;;;5.35;;
62848;SDS011;48941;49.516;8.286;2023-06-10T09:26:26;8.65;;;5.82;;
62848;SDS011;48941;49.516;8.286;2023-06-10T09:31:25;17.05;;;6.07;;
62848;SDS011;48941;49.516;8.286;2023-06-10T09:33:53;8.77;;;5.88;;
62848;SDS011;48941;49.516;8.286;2023-06-10T09:36:21;12.88;;;5.80;;
62848;SDS011;48941;49.516;8.286;2023-06-10T09:38:51;9.52;;;5.85;;
62848;SDS011;48941;49.516;8.286;2023-06-10T09:41:19;9.48;;;6.10;;
62848;SDS011;48941;49.516;8.286;2023-06-10T09:43:47;7.20;;;5.57;;
62848;SDS011;48941;49.516;8.286;2023-06-10T09:46:15;8.73;;;5.80;;
62848;SDS011;48941;49.516;8.286;2023-06-10T09:48:45;6.28;;;5.68;;
62848;SDS011;48941;49.516;8.286;2023-06-10T09:51:14;10.75;;;6.40;;
62848;SDS011;48941;49.516;8.286;2023-06-10T09:53:47;7.15;;;6.07;;
62848;SDS011;48941;49.516;8.286;2023-06-10T09:56:16;9.13;;;6.40;;
62848;SDS011;48941;49.516;8.286;2023-06-10T09:58:45;6.93;;;6.00;;
62848;SDS011;48941;49.516;8.286;2023-06-10T10:01:13;7.20;;;6.07;;
62848;SDS011;48941;49.516;8.286;2023-06-10T10:03:43;8.27;;;5.90;;
62848;SDS011;48941;49.516;8.286;2023-06-10T10:06:12;9.23;;;6.28;;
62848;SDS011;48941;49.516;8.286;2023-06-10T10:08:42;7.28;;;6.53;;
62848;SDS011;48941;49.516;8.286;2023-06-10T10:11:10;7.22;;;6.13;;
62848;SDS011;48941;49.516;8.286;2023-06-10T10:13:41;6.95;;;6.25;;
62848;SDS011;48941;49.516;8.286;2023-06-10T10:16:10;8.45;;;6.78;;
62848;SDS011;48941;49.516;8.286;2023-06-10T10:18:43;11.48;;;6.22;;
62848;SDS011;48941;49.516;8.286;2023-06-10T10:21:15;7.70;;;6.65;;
62848;SDS011;48941;49.516;8.286;2023-06-10T10:23:50;12.20;;;6.75;;
62848;SDS011;48941;49.516;8.286;2023-06-10T10:26:23;9.30;;;6.68;;
62848;SDS011;48941;49.516;8.286;2023-06-10T10:28:57;12.93;;;6.13;;
62848;SDS011;48941;49.516;8.286;2023-06-10T10:31:41;12.18;;;6.40;;
62848;SDS011;48941;49.516;8.286;2023-06-10T10:34:12;10.18;;;6.60;;
62848;SDS011;48941;49.516;8.286;2023-06-10T10:36:42;8.00;;;6.30;;
62848;SDS011;48941;49.516;8.286;2023-06-10T10:39:11;8.10;;;6.47;;
62848;SDS011;48941;49.516;8.286;2023-06-10T10:41:40;9.48;;;6.70;;
62848;SDS011;48941;49.516;8.286;2023-06-10T10:44:10;12.40;;;6.00;;
62848;SDS011;48941;49.516;8.286;2023-06-10T10:46:42;7.43;;;6.30;;
62848;SDS011;48941;49.516;8.286;2023-06-10T10:49:12;7.72;;;6.40;;
62848;SDS011;48941;49.516;8.286;2023-06-10T10:51:55;8.38;;;6.60;;
62848;SDS011;48941;49.516;8.286;2023-06-10T10:54:30;12.23;;;6.05;;
62848;SDS011;48941;49.516;8.286;2023-06-10T10:57:12;9.32;;;6.13;;
62848;SDS011;48941;49.516;8.286;2023-06-10T10:59:52;10.30;;;6.35;;
62848;SDS011;48941;49.516;8.286;2023-06-10T11:02:33;8.82;;;5.90;;
62848;SDS011;48941;49.516;8.286;2023-06-10T11:05:05;9.25;;;5.47;;
62848;SDS011;48941;49.516;8.286;2023-06-10T11:07:35;9.23;;;5.65;;
62848;SDS011;48941;49.516;8.286;2023-06-10T11:10:05;6.68;;;4.53;;
62848;SDS011;48941;49.516;8.286;2023-06-10T11:12:41;13.25;;;4.90;;
62848;SDS011;48941;49.516;8.286;2023-06-10T11:15:19;6.95;;;4.45;;
62848;SDS011;48941;49.516;8.286;2023-06-10T11:20:53;7.20;;;4.50;;
62848;SDS011;48941;49.516;8.286;2023-06-10T11:23:38;8.35;;;4.30;;
62848;SDS011;48941;49.516;8.286;2023-06-10T11:26:21;5.95;;;4.47;;
62848;SDS011;48941;49.516;8.286;2023-06-10T11:29:07;5.07;;;4.43;;
62848;SDS011;48941;49.516;8.286;2023-06-10T11:31:44;5.00;;;4.50;;
62848;SDS011;48941;49.516;8.286;2023-06-10T11:34:21;4.72;;;4.32;;
62848;SDS011;48941;49.516;8.286;2023-06-10T11:36:51;7.40;;;4.25;;
62848;SDS011;48941;49.516;8.286;2023-06-10T11:39:20;4.75;;;4.18;;
62848;SDS011;48941;49.516;8.286;2023-06-10T11:41:49;5.20;;;4.45;;
62848;SDS011;48941;49.516;8.286;2023-06-10T11:44:19;6.15;;;4.63;;
62848;SDS011;48941;49.516;8.286;2023-06-10T11:46:48;9.68;;;5.10;;
62848;SDS011;48941;49.516;8.286;2023-06-10T11:49:17;9.87;;;5.27;;
62848;SDS011;48941;49.516;8.286;2023-06-10T11:51:48;12.50;;;5.03;;
62848;SDS011;48941;49.516;8.286;2023-06-10T11:54:18;6.72;;;4.75;;
62848;SDS011;48941;49.516;8.286;2023-06-10T11:56:47;9.60;;;4.57;;
62848;SDS011;48941;49.516;8.286;2023-06-10T11:59:15;4.72;;;4.13;;
62848;SDS011;48941;49.516;8.286;2023-06-10T12:01:43;5.78;;;4.22;;
62848;SDS011;48941;49.516;8.286;2023-06-10T12:04:15;6.43;;;4.60;;
62848;SDS011;48941;49.516;8.286;2023-06-10T12:09:15;4.80;;;3.85;;
62848;SDS011;48941;49.516;8.286;2023-06-10T12:11:52;4.72;;;4.32;;
62848;SDS011;48941;49.516;8.286;2023-06-10T12:17:19;6.22;;;4.18;;
62848;SDS011;48941;49.516;8.286;2023-06-10T12:19:50;5.70;;;4.40;;
62848;SDS011;48941;49.516;8.286;2023-06-10T12:22:18;6.80;;;4.20;;
62848;SDS011;48941;49.516;8.286;2023-06-10T12:24:57;4.47;;;4.07;;
62848;SDS011;48941;49.516;8.286;2023-06-10T12:27:28;6.95;;;4.22;;
62848;SDS011;48941;49.516;8.286;2023-06-10T12:29:56;5.43;;;4.30;;
62848;SDS011;48941;49.516;8.286;2023-06-10T12:32:38;6.25;;;4.60;;
62848;SDS011;48941;49.516;8.286;2023-06-10T12:35:09;8.60;;;4.10;;
62848;SDS011;48941;49.516;8.286;2023-06-10T12:37:40;5.22;;;3.70;;
62848;SDS011;48941;49.516;8.286;2023-06-10T12:40:09;9.52;;;4.10;;
62848;SDS011;48941;49.516;8.286;2023-06-10T12:42:38;7.25;;;4.38;;
62848;SDS011;48941;49.516;8.286;2023-06-10T12:45:08;7.78;;;4.40;;
62848;SDS011;48941;49.516;8.286;2023-06-10T12:47:39;4.88;;;4.10;;
62848;SDS011;48941;49.516;8.286;2023-06-10T12:50:09;6.38;;;4.05;;
62848;SDS011;48941;49.516;8.286;2023-06-10T12:52:39;5.63;;;3.90;;
62848;SDS011;48941;49.516;8.286;2023-06-10T12:55:07;4.40;;;4.00;;
62848;SDS011;48941;49.516;8.286;2023-06-10T12:57:36;8.75;;;4.47;;
62848;SDS011;48941;49.516;8.286;2023-06-10T13:00:04;6.45;;;4.28;;
62848;SDS011;48941;49.516;8.286;2023-06-10T13:02:35;5.72;;;4.15;;
62848;SDS011;48941;49.516;8.286;2023-06-10T13:05:03;6.03;;;4.38;;
62848;SDS011;48941;49.516;8.286;2023-06-10T13:07:33;5.57;;;4.25;;
62848;SDS011;48941;49.516;8.286;2023-06-10T13:10:01;5.60;;;4.28;;
62848;SDS011;48941;49.516;8.286;2023-06-10T13:12:28;7.05;;;4.38;;
62848;SDS011;48941;49.516;8.286;2023-06-10T13:15:12;5.38;;;4.30;;
62848;SDS011;48941;49.516;8.286;2023-06-10T13:17:41;6.68;;;4.28;;
62848;SDS011;48941;49.516;8.286;2023-06-10T13:20:10;5.15;;;4.55;;
62848;SDS011;48941;49.516;8.286;2023-06-10T13:22:39;4.43;;;4.00;;
62848;SDS011;48941;49.516;8.286;2023-06-10T13:25:08;9.48;;;4.40;;
62848;SDS011;48941;49.516;8.286;2023-06-10T13:27:37;5.65;;;4.20;;
62848;SDS011;48941;49.516;8.286;2023-06-10T13:30:06;6.88;;;4.10;;
62848;SDS011;48941;49.516;8.286;2023-06-10T13:32:35;5.88;;;4.43;;
62848;SDS011;48941;49.516;8.286;2023-06-10T13:35:04;5.38;;;4.70;;
62848;SDS011;48941;49.516;8.286;2023-06-10T13:37:34;5.07;;;4.10;;
62848;SDS011;48941;49.516;8.286;2023-06-10T13:40:04;5.72;;;4.18;;
62848;SDS011;48941;49.516;8.286;2023-06-10T13:45:02;5.47;;;4.10;;
62848;SDS011;48941;49.516;8.286;2023-06-10T13:47:30;4.95;;;3.92;;
62848;SDS011;48941;49.516;8.286;2023-06-10T13:49:59;4.72;;;4.07;;
62848;SDS011;48941;49.516;8.286;2023-06-10T13:52:26;4.20;;;3.80;;
62848;SDS011;48941;49.516;8.286;2023-06-10T13:54:54;4.85;;;3.92;;
62848;SDS011;48941;49.516;8.286;2023-06-10T13:57:23;4.68;;;4.00;;
62848;SDS011;48941;49.516;8.286;2023-06-10T13:59:51;6.50;;;4.18;;
62848;SDS011;48941;49.516;8.286;2023-06-10T14:02:19;8.70;;;4.22;;
62848;SDS011;48941;49.516;8.286;2023-06-10T14:04:47;6.53;;;4.53;;
62848;SDS011;48941;49.516;8.286;2023-06-10T14:07:15;4.93;;;4.00;;
62848;SDS011;48941;49.516;8.286;2023-06-10T14:09:43;6.97;;;3.80;;
62848;SDS011;48941;49.516;8.286;2023-06-10T14:12:11;6.00;;;4.60;;
62848;SDS011;48941;49.516;8.286;2023-06-10T14:14:40;5.95;;;4.20;;
62848;SDS011;48941;49.516;8.286;2023-06-10T14:17:08;5.88;;;4.10;;
62848;SDS011;48941;49.516;8.286;2023-06-10T14:19:36;8.55;;;4.30;;
62848;SDS011;48941;49.516;8.286;2023-06-10T14:22:04;8.20;;;4.25;;
62848;SDS011;48941;49.516;8.286;2023-06-10T14:24:33;4.55;;;4.05;;
62848;SDS011;48941;49.516;8.286;2023-06-10T14:27:01;6.88;;;3.97;;
62848;SDS011;48941;49.516;8.286;2023-06-10T14:29:29;4.90;;;3.90;;
62848;SDS011;48941;49.516;8.286;2023-06-10T14:31:59;9.90;;;4.50;;
62848;SDS011;48941;49.516;8.286;2023-06-10T14:34:28;6.82;;;4.20;;
62848;SDS011;48941;49.516;8.286;2023-06-10T14:37:02;5.45;;;3.90;;
62848;SDS011;48941;49.516;8.286;2023-06-10T14:39:33;4.83;;;4.33;;
62848;SDS011;48941;49.516;8.286;2023-06-10T14:42:01;5.20;;;3.83;;
62848;SDS011;48941;49.516;8.286;2023-06-10T14:44:29;6.07;;;4.05;;
62848;SDS011;48941;49.516;8.286;2023-06-10T14:46:59;4.47;;;3.90;;
62848;SDS011;48941;49.516;8.286;2023-06-10T14:49:26;6.47;;;3.70;;
62848;SDS011;48941;49.516;8.286;2023-06-10T14:51:54;4.00;;;3.70;;
62848;SDS011;48941;49.516;8.286;2023-06-10T14:54:22;4.45;;;4.05;;
62848;SDS011;48941;49.516;8.286;2023-06-10T14:56:50;5.90;;;4.00;;
62848;SDS011;48941;49.516;8.286;2023-06-10T14:59:18;4.30;;;3.90;;
62848;SDS011;48941;49.516;8.286;2023-06-10T15:01:46;4.88;;;3.72;;
62848;SDS011;48941;49.516;8.286;2023-06-10T15:04:15;6.25;;;4.25;;
62848;SDS011;48941;49.516;8.286;2023-06-10T15:06:48;5.07;;;4.32;;